createdAt,value
2022-08-30T00:00:12.349Z,5.03
2022-08-30T00:02:39.262Z,5.50
2022-08-30T00:05:06.080Z,5.47
2022-08-30T00:07:33.001Z,4.97
2022-08-30T00:09:59.904Z,4.97
2022-08-30T00:12:26.622Z,4.72
2022-08-30T00:14:53.895Z,5.55
2022-08-30T00:17:20.553Z,4.95
2022-08-30T00:19:47.270Z,4.85
2022-08-30T00:22:13.926Z,5.10
2022-08-30T00:24:40.564Z,5.70
2022-08-30T00:27:07.197Z,5.13
2022-08-30T00:29:33.915Z,4.93
2022-08-30T00:32:02.435Z,5.18
2022-08-30T00:34:29.126Z,5.68
2022-08-30T00:36:55.787Z,4.70
2022-08-30T00:39:22.390Z,5.97
2022-08-30T00:41:49.030Z,5.50
2022-08-30T00:44:15.677Z,5.47
2022-08-30T00:46:42.399Z,5.78
2022-08-30T00:49:10.718Z,5.45
2022-08-30T00:51:37.720Z,5.28
2022-08-30T00:54:05.708Z,5.35
2022-08-30T00:56:32.828Z,5.55
2022-08-30T00:59:00.526Z,5.55
2022-08-30T01:01:27.600Z,5.80
2022-08-30T01:03:57.107Z,5.70
2022-08-30T01:06:24.593Z,5.18
2022-08-30T01:08:59.613Z,5.40
2022-08-30T01:11:26.307Z,5.40
2022-08-30T01:13:53.820Z,6.38
2022-08-30T01:16:20.988Z,5.60
2022-08-30T01:18:49.725Z,5.20
2022-08-30T01:21:21.191Z,5.40
2022-08-30T01:23:50.262Z,5.25
2022-08-30T01:26:17.617Z,5.47
2022-08-30T01:28:51.855Z,5.30
2022-08-30T01:31:19.021Z,5.82
2022-08-30T01:33:45.765Z,5.88
2022-08-30T01:36:13.720Z,6.03
2022-08-30T01:38:42.941Z,5.53
2022-08-30T01:41:21.562Z,6.05
2022-08-30T01:43:49.259Z,5.35
2022-08-30T01:46:17.093Z,6.00
2022-08-30T01:48:50.243Z,5.80
2022-08-30T01:51:21.903Z,5.88
2022-08-30T01:53:48.563Z,6.20
2022-08-30T01:56:15.617Z,5.68
2022-08-30T01:58:42.697Z,5.75
2022-08-30T02:01:12.716Z,6.45
2022-08-30T02:03:40.544Z,5.85
2022-08-30T02:06:08.675Z,5.55
2022-08-30T02:08:35.653Z,5.70
2022-08-30T02:11:02.456Z,6.35
2022-08-30T02:13:30.209Z,5.75
2022-08-30T02:15:56.968Z,5.60
2022-08-30T02:18:24.659Z,5.85
2022-08-30T02:20:51.308Z,5.85
2022-08-30T02:23:18.434Z,6.30
2022-08-30T02:25:45.834Z,5.80
2022-08-30T02:28:14.941Z,6.32
2022-08-30T02:30:42.673Z,5.80
2022-08-30T02:33:09.438Z,5.78
2022-08-30T02:35:36.112Z,5.50
2022-08-30T02:38:02.765Z,5.88
2022-08-30T02:40:29.508Z,6.25
2022-08-30T02:42:57.041Z,5.63
2022-08-30T02:45:24.586Z,5.72
2022-08-30T02:47:51.967Z,5.80
2022-08-30T02:50:18.703Z,5.53
2022-08-30T02:52:48.384Z,5.68
2022-08-30T02:55:15.566Z,6.20
2022-08-30T02:57:43.516Z,5.75
2022-08-30T03:00:12.652Z,5.70
2022-08-30T03:02:40.570Z,5.65
2022-08-30T03:05:08.227Z,5.70
2022-08-30T03:07:34.892Z,6.43
2022-08-30T03:10:01.673Z,5.78
2022-08-30T03:12:28.368Z,6.25
2022-08-30T03:14:55.103Z,6.13
2022-08-30T03:17:21.770Z,6.15
2022-08-30T03:19:48.464Z,6.78
2022-08-30T03:22:15.247Z,5.90
2022-08-30T03:24:41.934Z,6.32
2022-08-30T03:27:08.654Z,5.90
2022-08-30T03:29:35.357Z,5.97
2022-08-30T03:32:02.220Z,6.03
2022-08-30T03:34:28.894Z,6.43
2022-08-30T03:36:55.855Z,5.68
2022-08-30T03:39:23.305Z,6.32
2022-08-30T03:41:50.083Z,6.32
2022-08-30T03:44:16.784Z,6.03
2022-08-30T03:46:43.484Z,6.40
2022-08-30T03:49:10.151Z,6.80
2022-08-30T03:51:36.933Z,6.43
2022-08-30T03:54:03.732Z,6.07
2022-08-30T03:56:30.398Z,7.05
2022-08-30T03:58:57.371Z,6.82
2022-08-30T04:01:24.346Z,6.82
2022-08-30T04:03:51.067Z,6.00
2022-08-30T04:06:17.888Z,6.70
2022-08-30T04:08:46.084Z,6.82
2022-08-30T04:11:14.937Z,6.15
2022-08-30T04:13:41.550Z,7.00
2022-08-30T04:16:08.174Z,6.63
2022-08-30T04:18:35.645Z,6.63
2022-08-30T04:21:03.058Z,6.50
2022-08-30T04:23:29.984Z,6.47
2022-08-30T04:25:56.743Z,6.68
2022-08-30T04:28:23.708Z,6.82
2022-08-30T04:30:50.369Z,6.75
2022-08-30T04:33:17.410Z,6.20
2022-08-30T04:35:45.752Z,6.45
2022-08-30T04:38:13.650Z,6.30
2022-08-30T04:40:44.303Z,7.60
2022-08-30T04:43:13.000Z,6.72
2022-08-30T04:45:40.518Z,6.95
2022-08-30T04:48:07.400Z,7.85
2022-08-30T04:50:34.089Z,7.35
2022-08-30T04:53:11.338Z,7.00
2022-08-30T04:55:39.721Z,6.88
2022-08-30T04:58:06.502Z,7.32
2022-08-30T05:00:33.694Z,7.32
2022-08-30T05:03:00.732Z,7.00
2022-08-30T05:05:39.824Z,7.53
2022-08-30T05:08:07.677Z,7.47
2022-08-30T05:10:34.451Z,7.65
2022-08-30T05:13:01.134Z,7.32
2022-08-30T05:15:27.759Z,7.88
2022-08-30T05:17:54.383Z,7.10
2022-08-30T05:20:21.067Z,8.18
2022-08-30T05:22:53.502Z,7.20
2022-08-30T05:25:24.823Z,7.72
2022-08-30T05:27:52.474Z,7.28
2022-08-30T05:30:19.426Z,7.03
2022-08-30T05:32:46.300Z,6.75
2022-08-30T05:35:13.440Z,7.40
2022-08-30T05:37:40.275Z,7.05
2022-08-30T05:40:11.149Z,7.72
2022-08-30T05:42:38.585Z,7.43
2022-08-30T05:45:05.849Z,7.10
2022-08-30T05:47:32.602Z,7.35
2022-08-30T05:49:59.299Z,8.18
2022-08-30T05:52:25.906Z,7.97
2022-08-30T05:54:53.808Z,7.45
2022-08-30T05:57:20.581Z,7.72
2022-08-30T05:59:47.303Z,8.48
2022-08-30T06:02:14.108Z,7.25
2022-08-30T06:04:40.825Z,7.85
2022-08-30T06:07:12.946Z,7.82
2022-08-30T06:09:42.156Z,7.80
2022-08-30T06:12:08.867Z,7.50
2022-08-30T06:14:35.564Z,8.45
2022-08-30T06:17:02.200Z,8.02
2022-08-30T06:19:28.836Z,8.85
2022-08-30T06:21:55.602Z,8.80
2022-08-30T06:24:35.662Z,9.50
2022-08-30T06:27:09.913Z,9.35
2022-08-30T06:29:36.741Z,9.23
2022-08-30T06:32:03.649Z,9.70
2022-08-30T06:34:30.289Z,8.82
2022-08-30T06:36:56.935Z,9.73
2022-08-30T06:39:23.725Z,10.38
2022-08-30T06:41:50.394Z,8.63
2022-08-30T06:44:32.730Z,9.20
2022-08-30T06:46:59.747Z,8.48
2022-08-30T06:49:26.419Z,8.90
2022-08-30T06:51:53.328Z,9.82
2022-08-30T06:54:20.327Z,9.07
2022-08-30T06:56:58.170Z,9.40
2022-08-30T06:59:26.929Z,8.73
2022-08-30T07:01:54.114Z,9.30
2022-08-30T07:04:20.815Z,9.63
2022-08-30T07:06:47.510Z,9.32
2022-08-30T07:09:14.131Z,9.57
2022-08-30T07:11:41.586Z,10.02
2022-08-30T07:14:08.380Z,9.18
2022-08-30T07:16:35.649Z,9.10
2022-08-30T07:19:03.261Z,9.80
2022-08-30T07:21:32.692Z,9.50
2022-08-30T07:23:59.812Z,10.77
2022-08-30T07:26:28.671Z,10.23
2022-08-30T07:28:57.329Z,9.73
2022-08-30T07:31:24.917Z,10.38
2022-08-30T07:33:52.309Z,10.32
2022-08-30T07:36:19.349Z,9.77
2022-08-30T07:38:46.747Z,9.60
2022-08-30T07:41:19.692Z,9.85
2022-08-30T07:43:47.049Z,9.60
2022-08-30T07:46:14.064Z,9.10
2022-08-30T07:48:40.754Z,9.27
2022-08-30T07:51:18.869Z,9.43
2022-08-30T07:53:46.464Z,9.80
2022-08-30T07:56:13.422Z,9.38
2022-08-30T07:58:40.123Z,10.05
2022-08-30T08:01:07.703Z,9.60
2022-08-30T08:03:34.549Z,10.07
2022-08-30T08:06:02.791Z,9.73
2022-08-30T08:08:29.892Z,9.30
2022-08-30T08:10:57.121Z,9.30
2022-08-30T08:13:27.916Z,9.10
2022-08-30T08:15:55.365Z,9.35
2022-08-30T08:18:22.061Z,9.07
2022-08-30T08:20:48.836Z,9.68
2022-08-30T08:23:16.292Z,8.73
2022-08-30T08:25:43.527Z,8.10
2022-08-30T08:28:10.173Z,9.38
2022-08-30T08:30:37.534Z,9.40
2022-08-30T08:33:05.348Z,8.65
2022-08-30T08:35:32.498Z,9.15
2022-08-30T08:37:59.770Z,9.13
2022-08-30T08:40:27.224Z,8.98
2022-08-30T08:43:03.086Z,9.32
2022-08-30T08:45:38.048Z,8.48
2022-08-30T08:48:10.154Z,9.52
2022-08-30T08:51:02.470Z,9.00
2022-08-30T08:53:46.421Z,8.95
2022-08-30T08:56:15.227Z,9.85
2022-08-30T08:58:43.846Z,8.45
2022-08-30T09:01:12.053Z,9.15
2022-08-30T09:03:39.927Z,8.98
2022-08-30T09:06:22.384Z,8.63
2022-08-30T09:08:49.176Z,9.23
2022-08-30T09:11:36.095Z,8.90
2022-08-30T09:14:05.484Z,8.55
2022-08-30T09:16:49.149Z,8.95
2022-08-30T09:19:45.590Z,8.55
2022-08-30T09:22:26.515Z,8.98
2022-08-30T09:25:13.504Z,8.10
2022-08-30T09:27:40.106Z,7.93
2022-08-30T09:30:06.891Z,7.93
2022-08-30T09:32:42.189Z,8.68
2022-08-30T09:35:18.138Z,7.78
2022-08-30T09:37:47.088Z,7.20
2022-08-30T09:40:17.279Z,8.75
2022-08-30T09:42:58.889Z,8.43
2022-08-30T09:45:30.094Z,7.85
2022-08-30T09:47:56.747Z,9.18
2022-08-30T09:50:25.160Z,7.30
2022-08-30T09:53:00.537Z,7.80
2022-08-30T09:55:28.019Z,7.60
2022-08-30T09:58:00.034Z,7.63
2022-08-30T10:00:29.094Z,8.27
2022-08-30T10:03:34.923Z,8.30
2022-08-30T10:06:05.735Z,7.18
2022-08-30T10:08:42.748Z,7.53
2022-08-30T10:11:13.485Z,7.43
2022-08-30T10:13:43.489Z,6.88
2022-08-30T10:16:14.627Z,7.38
2022-08-30T10:18:46.880Z,7.93
2022-08-30T10:21:19.185Z,7.53
2022-08-30T10:23:50.113Z,7.40
2022-08-30T10:26:19.433Z,7.90
2022-08-30T10:28:50.402Z,7.63
2022-08-30T10:31:26.127Z,7.10
2022-08-30T10:33:55.941Z,6.60
2022-08-30T10:36:26.165Z,7.63
2022-08-30T10:38:54.209Z,8.10
2022-08-30T10:41:20.862Z,7.35
2022-08-30T10:44:06.027Z,7.20
2022-08-30T10:46:43.470Z,6.80
2022-08-30T10:49:14.205Z,6.78
2022-08-30T10:51:44.058Z,6.35
2022-08-30T10:54:19.540Z,6.70
2022-08-30T10:56:49.541Z,6.38
2022-08-30T10:59:20.471Z,6.80
2022-08-30T11:01:47.227Z,6.38
2022-08-30T11:04:14.499Z,6.45
2022-08-30T11:06:53.823Z,6.65
2022-08-30T11:09:32.294Z,6.68
2022-08-30T11:12:21.328Z,6.45
2022-08-30T11:14:48.174Z,6.88
2022-08-30T11:17:24.664Z,7.03
2022-08-30T11:19:52.122Z,6.60
2022-08-30T11:22:24.225Z,6.07
2022-08-30T11:25:01.749Z,6.63
2022-08-30T11:27:47.258Z,5.97
2022-08-30T11:30:24.469Z,6.10
2022-08-30T11:32:59.531Z,6.15
2022-08-30T11:35:48.347Z,5.82
2022-08-30T11:38:21.094Z,5.82
2022-08-30T11:40:50.143Z,5.72
2022-08-30T11:43:45.886Z,6.63
2022-08-30T11:46:15.694Z,6.00
2022-08-30T11:48:55.412Z,5.18
2022-08-30T11:51:41.286Z,5.80
2022-08-30T11:54:23.712Z,5.47
2022-08-30T11:57:01.287Z,5.53
2022-08-30T11:59:51.712Z,5.50
2022-08-30T12:02:37.435Z,5.45
2022-08-30T12:05:04.510Z,5.55
2022-08-30T12:07:52.263Z,6.30
2022-08-30T12:10:37.366Z,5.40
2022-08-30T12:13:04.804Z,5.55
2022-08-30T12:15:53.293Z,5.47
2022-08-30T12:18:30.088Z,5.07
2022-08-30T12:21:00.695Z,6.05
2022-08-30T12:23:31.239Z,5.60
2022-08-30T12:26:16.175Z,5.18
2022-08-30T12:28:43.738Z,5.53
2022-08-30T12:31:11.558Z,4.72
2022-08-30T12:33:45.227Z,5.50
2022-08-30T12:36:13.863Z,5.50
2022-08-30T12:38:40.902Z,5.75
2022-08-30T12:41:07.721Z,5.75
2022-08-30T12:43:40.924Z,5.15
2022-08-30T12:46:11.525Z,5.93
2022-08-30T12:48:39.834Z,5.13
2022-08-30T12:51:07.295Z,5.20
2022-08-30T12:53:37.670Z,5.13
2022-08-30T12:56:04.851Z,4.90
2022-08-30T12:58:43.451Z,5.03
2022-08-30T13:01:28.461Z,5.40
2022-08-30T13:04:13.650Z,5.10
2022-08-30T13:06:43.895Z,4.82
2022-08-30T13:09:21.026Z,5.80
2022-08-30T13:11:49.312Z,5.53
2022-08-30T13:14:20.347Z,5.35
2022-08-30T13:16:47.936Z,5.35
2022-08-30T13:19:16.599Z,5.22
2022-08-30T13:21:47.884Z,5.43
2022-08-30T13:24:14.539Z,5.45
2022-08-30T13:26:42.219Z,5.25
2022-08-30T13:29:14.679Z,5.03
2022-08-30T13:31:41.444Z,5.50
2022-08-30T13:34:08.285Z,5.32
2022-08-30T13:36:36.367Z,5.22
2022-08-30T13:39:04.321Z,4.82
2022-08-30T13:41:33.931Z,4.57
2022-08-30T13:44:11.768Z,5.05
2022-08-30T13:46:39.992Z,4.95
2022-08-30T13:49:42.963Z,4.97
2022-08-30T13:52:19.040Z,4.45
2022-08-30T13:54:43.946Z,4.28
2022-08-30T13:57:10.607Z,4.00
2022-08-30T13:59:37.623Z,3.85
2022-08-30T14:02:08.139Z,5.20
2022-08-30T14:04:35.192Z,4.18
2022-08-30T14:07:20.299Z,4.60
2022-08-30T14:09:47.537Z,4.68
2022-08-30T14:12:14.359Z,4.20
2022-08-30T14:14:43.247Z,4.13
2022-08-30T14:17:10.797Z,3.63
2022-08-30T14:19:39.591Z,3.72
2022-08-30T14:22:06.251Z,4.20
2022-08-30T14:24:32.964Z,3.95
2022-08-30T14:27:01.348Z,4.97
2022-08-30T14:29:31.230Z,3.70
2022-08-30T14:32:00.084Z,3.80
2022-08-30T14:34:27.011Z,4.25
2022-08-30T14:36:53.911Z,3.40
2022-08-30T14:39:21.450Z,3.45
2022-08-30T14:41:49.421Z,3.97
2022-08-30T14:44:16.872Z,3.40
2022-08-30T14:46:43.818Z,4.03
2022-08-30T14:49:11.203Z,3.70
2022-08-30T14:51:38.168Z,3.83
2022-08-30T14:54:04.787Z,3.80
2022-08-30T14:56:31.439Z,3.60
2022-08-30T14:59:00.656Z,2.97
2022-08-30T15:01:28.203Z,4.07
2022-08-30T15:03:55.062Z,3.50
2022-08-30T15:06:22.377Z,4.07
2022-08-30T15:08:49.791Z,3.50
2022-08-30T15:11:18.445Z,3.78
2022-08-30T15:13:45.234Z,4.03
2022-08-30T15:16:13.507Z,3.65
2022-08-30T15:18:41.763Z,3.50
2022-08-30T15:21:08.895Z,3.75
2022-08-30T15:23:36.419Z,3.80
2022-08-30T15:26:03.963Z,3.83
2022-08-30T15:28:31.173Z,3.53
2022-08-30T15:30:57.924Z,4.13
2022-08-30T15:33:24.630Z,3.92
2022-08-30T15:35:52.253Z,4.10
2022-08-30T15:38:19.698Z,4.10
2022-08-30T15:40:49.571Z,3.80
2022-08-30T15:43:16.602Z,3.92
2022-08-30T15:45:46.566Z,3.70
2022-08-30T15:48:13.835Z,4.00
2022-08-30T15:50:40.628Z,3.85
2022-08-30T15:53:08.922Z,4.10
2022-08-30T15:55:35.573Z,3.58
2022-08-30T15:58:02.439Z,4.07
2022-08-30T16:00:29.188Z,3.88
2022-08-30T16:02:56.022Z,3.67
2022-08-30T16:05:23.781Z,3.80
2022-08-30T16:07:52.374Z,4.05
2022-08-30T16:10:19.365Z,3.90
2022-08-30T16:12:46.074Z,3.67
2022-08-30T16:15:12.765Z,3.42
2022-08-30T16:17:39.560Z,3.33
2022-08-30T16:20:06.868Z,3.85
2022-08-30T16:22:33.750Z,3.78
2022-08-30T16:25:00.821Z,3.65
2022-08-30T16:27:28.293Z,3.70
2022-08-30T16:29:54.943Z,3.38
2022-08-30T16:32:22.018Z,3.50
2022-08-30T16:34:49.816Z,3.30
2022-08-30T16:37:16.562Z,4.22
2022-08-30T16:39:45.889Z,4.35
2022-08-30T16:42:15.014Z,3.28
2022-08-30T16:44:48.331Z,3.53
2022-08-30T16:47:16.515Z,3.80
2022-08-30T16:49:44.095Z,4.05
2022-08-30T16:52:11.453Z,4.35
2022-08-30T16:54:38.929Z,3.95
2022-08-30T16:57:06.488Z,3.40
2022-08-30T16:59:33.375Z,3.88
2022-08-30T17:02:00.902Z,4.30
2022-08-30T17:04:27.664Z,3.58
2022-08-30T17:06:54.436Z,4.10
2022-08-30T17:09:21.376Z,4.20
2022-08-30T17:11:49.078Z,4.22
2022-08-30T17:14:21.333Z,4.00
2022-08-30T17:16:49.915Z,4.10
2022-08-30T17:19:16.583Z,4.55
2022-08-30T17:21:53.768Z,6.93
2022-08-30T17:24:20.566Z,8.10
2022-08-30T17:26:47.491Z,8.23
2022-08-30T17:29:14.263Z,4.75
2022-08-30T17:31:43.040Z,4.57
2022-08-30T17:34:11.590Z,4.30
2022-08-30T17:36:38.447Z,3.97
2022-08-30T17:39:10.343Z,4.20
2022-08-30T17:41:38.803Z,4.20
2022-08-30T17:44:05.440Z,4.38
2022-08-30T17:46:33.746Z,3.58
2022-08-30T17:49:01.084Z,4.07
2022-08-30T17:51:34.702Z,4.22
2022-08-30T17:54:04.945Z,3.78
2022-08-30T17:56:35.403Z,4.05
2022-08-30T17:59:04.923Z,3.97
2022-08-30T18:01:33.821Z,4.22
2022-08-30T18:04:01.987Z,4.03
2022-08-30T18:06:33.592Z,3.83
2022-08-30T18:09:00.906Z,3.92
2022-08-30T18:11:27.677Z,4.10
2022-08-30T18:13:54.382Z,4.00
2022-08-30T18:16:21.760Z,3.92
2022-08-30T18:18:57.026Z,3.65
2022-08-30T18:21:25.208Z,4.32
2022-08-30T18:23:52.483Z,3.70
2022-08-30T18:26:19.511Z,4.10
2022-08-30T18:28:51.209Z,4.20
2022-08-30T18:31:17.843Z,4.00
2022-08-30T18:33:44.680Z,4.00
2022-08-30T18:36:11.478Z,4.47
2022-08-30T18:38:39.659Z,4.15
2022-08-30T18:41:08.986Z,4.47
2022-08-30T18:43:36.492Z,4.40
2022-08-30T18:46:04.764Z,4.30
2022-08-30T18:48:32.214Z,3.90
2022-08-30T18:50:59.345Z,4.38
2022-08-30T18:53:29.240Z,4.07
2022-08-30T18:55:57.641Z,3.60
2022-08-30T18:58:24.312Z,4.18
2022-08-30T19:00:50.943Z,4.20
2022-08-30T19:03:18.345Z,4.10
2022-08-30T19:05:45.877Z,3.88
2022-08-30T19:08:13.473Z,4.50
2022-08-30T19:10:40.830Z,4.30
2022-08-30T19:13:08.131Z,4.80
2022-08-30T19:15:35.515Z,3.97
2022-08-30T19:18:02.561Z,4.22
2022-08-30T19:20:43.710Z,4.18
2022-08-30T19:23:10.505Z,4.07
2022-08-30T19:25:38.906Z,4.13
2022-08-30T19:28:05.705Z,4.32
2022-08-30T19:30:32.979Z,4.32
2022-08-30T19:32:59.777Z,4.28
2022-08-30T19:35:26.622Z,3.88
2022-08-30T19:37:56.816Z,4.00
2022-08-30T19:40:23.515Z,4.32
2022-08-30T19:42:52.242Z,4.57
2022-08-30T19:45:21.634Z,4.10
2022-08-30T19:47:49.087Z,4.25
2022-08-30T19:50:16.301Z,3.95
2022-08-30T19:52:45.632Z,4.72
2022-08-30T19:55:14.152Z,4.05
2022-08-30T19:57:43.235Z,4.25
2022-08-30T20:00:12.394Z,4.20
2022-08-30T20:02:44.208Z,3.78
2022-08-30T20:05:11.446Z,4.25
2022-08-30T20:07:39.963Z,4.28
2022-08-30T20:10:08.755Z,3.85
2022-08-30T20:12:35.486Z,4.43
2022-08-30T20:15:09.246Z,4.22
2022-08-30T20:18:01.986Z,3.60
2022-08-30T20:20:23.526Z,4.10
2022-08-30T20:22:54.306Z,3.67
2022-08-30T20:25:21.277Z,3.40
2022-08-30T20:27:49.021Z,3.13
2022-08-30T20:30:16.094Z,3.20
2022-08-30T20:32:45.152Z,2.80
2022-08-30T20:35:12.514Z,3.53
2022-08-30T20:37:39.675Z,3.10
2022-08-30T20:40:07.028Z,3.17
2022-08-30T20:42:33.805Z,3.08
2022-08-30T20:45:00.802Z,2.95
2022-08-30T20:47:28.106Z,3.10
2022-08-30T20:49:54.870Z,3.08
2022-08-30T20:52:21.986Z,3.13
2022-08-30T20:54:48.620Z,2.50
2022-08-30T20:57:24.365Z,3.00
2022-08-30T20:59:51.219Z,2.70
2022-08-30T21:02:17.866Z,2.97
2022-08-30T21:04:44.574Z,2.95
2022-08-30T21:07:11.336Z,2.72
2022-08-30T21:09:37.959Z,2.85
2022-08-30T21:12:05.244Z,3.03
2022-08-30T21:14:31.917Z,2.30
2022-08-30T21:16:58.663Z,2.38
2022-08-30T21:19:25.753Z,2.90
2022-08-30T21:21:52.683Z,3.03
2022-08-30T21:24:19.436Z,2.50
2022-08-30T21:26:46.222Z,3.00
2022-08-30T21:29:14.184Z,2.33
2022-08-30T21:31:40.896Z,3.10
2022-08-30T21:34:08.915Z,2.67
2022-08-30T21:36:47.065Z,2.88
2022-08-30T21:39:16.838Z,2.83
2022-08-30T21:41:43.944Z,2.58
2022-08-30T21:44:12.906Z,2.30
2022-08-30T21:46:40.472Z,2.40
2022-08-30T21:49:08.711Z,2.08
2022-08-30T21:51:37.102Z,2.33
2022-08-30T21:54:04.628Z,2.60
2022-08-30T21:56:31.778Z,2.00
2022-08-30T21:58:58.680Z,2.55
2022-08-30T22:01:27.590Z,2.42
2022-08-30T22:03:55.174Z,2.22
2022-08-30T22:06:29.300Z,2.13
2022-08-30T22:08:58.111Z,2.20
2022-08-30T22:11:25.698Z,2.10
2022-08-30T22:13:52.989Z,2.10
2022-08-30T22:16:19.666Z,2.10
2022-08-30T22:18:46.340Z,2.40
2022-08-30T22:21:14.116Z,2.67
2022-08-30T22:23:41.279Z,2.25
2022-08-30T22:26:08.937Z,2.10
2022-08-30T22:28:35.887Z,2.35
2022-08-30T22:31:03.897Z,2.10
2022-08-30T22:33:30.603Z,2.33
2022-08-30T22:35:57.293Z,2.30
2022-08-30T22:38:24.251Z,2.67
2022-08-30T22:40:52.948Z,2.40
2022-08-30T22:43:19.930Z,1.95
2022-08-30T22:45:46.638Z,2.28
2022-08-30T22:48:13.309Z,2.17
2022-08-30T22:50:39.995Z,2.20
2022-08-30T22:53:07.068Z,2.30
2022-08-30T22:55:34.013Z,2.30
2022-08-30T22:58:00.695Z,2.20
2022-08-30T23:00:27.379Z,1.92
2022-08-30T23:02:54.303Z,2.45
2022-08-30T23:05:21.807Z,2.40
2022-08-30T23:07:48.747Z,2.30
2022-08-30T23:10:15.558Z,2.20
2022-08-30T23:12:42.977Z,2.25
2022-08-30T23:15:11.977Z,2.20
2022-08-30T23:17:39.794Z,2.05
2022-08-30T23:20:06.925Z,2.47
2022-08-30T23:22:33.628Z,2.20
2022-08-30T23:25:18.730Z,2.00
2022-08-30T23:28:05.108Z,2.58
2022-08-30T23:30:50.422Z,2.13
2022-08-30T23:33:35.697Z,2.08
2022-08-30T23:36:31.528Z,2.38
2022-08-30T23:39:17.332Z,2.53
2022-08-30T23:42:02.885Z,2.28
2022-08-30T23:44:48.157Z,2.20
2022-08-30T23:47:33.557Z,2.53
2022-08-30T23:50:18.849Z,2.20
2022-08-30T23:53:04.046Z,2.70
2022-08-30T23:55:49.463Z,2.65
2022-08-30T23:58:35.552Z,2.13
